createdAt,value
2023-05-14T00:07:38.405Z,31.60
2023-05-14T00:13:41.686Z,27.70
2023-05-14T00:19:44.906Z,29.60
2023-05-14T00:22:46.479Z,29.60
2023-05-14T00:25:48.450Z,31.20
2023-05-14T00:28:50.092Z,30.70
2023-05-14T00:34:53.374Z,31.70
2023-05-14T00:40:56.422Z,30.70
2023-05-14T00:47:00.298Z,28.80
2023-05-14T00:50:03.788Z,32.20
2023-05-14T00:53:05.477Z,31.90
2023-05-14T00:56:07.632Z,32.20
2023-05-14T01:02:11.076Z,29.90
2023-05-14T01:05:12.792Z,31.40
2023-05-14T01:11:29.895Z,31.70
2023-05-14T01:14:43.062Z,32.40
2023-05-14T01:17:59.346Z,36.70
2023-05-14T01:21:01.827Z,35.20
2023-05-14T01:24:03.667Z,34.20
2023-05-14T01:27:18.423Z,34.40
2023-05-14T01:30:32.788Z,32.10
2023-05-14T01:33:35.821Z,33.30
2023-05-14T01:36:39.044Z,35.00
2023-05-14T01:39:41.295Z,32.60
2023-05-14T01:42:43.469Z,33.20
2023-05-14T01:45:46.286Z,35.70
2023-05-14T01:51:49.434Z,30.10
2023-05-14T01:57:53.626Z,31.90
2023-05-14T02:00:55.282Z,35.90
2023-05-14T02:06:58.452Z,30.60
2023-05-14T02:10:00.147Z,31.00
2023-05-14T02:13:01.726Z,32.70
2023-05-14T02:16:03.662Z,32.80
2023-05-14T02:19:05.489Z,34.20
2023-05-14T02:22:07.152Z,31.50
2023-05-14T02:25:09.640Z,34.30
2023-05-14T02:28:11.235Z,32.30
2023-05-14T02:34:14.492Z,31.30
2023-05-14T02:40:17.820Z,30.40
2023-05-14T02:43:19.409Z,31.70
2023-05-14T02:49:22.636Z,34.40
2023-05-14T02:52:24.377Z,35.40
2023-05-14T02:58:28.430Z,30.10
2023-05-14T03:01:30.268Z,32.20
2023-05-14T03:04:32.332Z,33.90
2023-05-14T03:07:33.877Z,29.90
2023-05-14T03:10:35.402Z,30.80
2023-05-14T03:13:36.997Z,31.10
2023-05-14T03:16:38.553Z,35.10
2023-05-14T03:22:44.894Z,28.00
2023-05-14T03:28:48.542Z,30.90
2023-05-14T03:31:50.260Z,31.30
2023-05-14T03:34:51.957Z,32.40
2023-05-14T03:40:55.243Z,31.30
2023-05-14T03:43:57.337Z,29.70
2023-05-14T03:46:58.976Z,27.70
2023-05-14T03:53:02.349Z,26.90
2023-05-14T03:56:04.327Z,31.80
2023-05-14T03:59:06.097Z,29.00
2023-05-14T04:02:10.659Z,30.10
2023-05-14T04:08:13.969Z,27.10
2023-05-14T04:11:15.635Z,28.90
2023-05-14T04:14:17.291Z,26.70
2023-05-14T04:17:19.151Z,26.20
2023-05-14T04:20:21.454Z,25.20
2023-05-14T04:23:23.152Z,23.70
2023-05-14T04:26:24.775Z,26.90
2023-05-14T04:29:26.348Z,26.30
2023-05-14T04:32:27.874Z,25.20
2023-05-14T04:35:29.716Z,23.90
2023-05-14T04:38:31.392Z,24.10
2023-05-14T04:41:35.978Z,24.50
2023-05-14T04:44:37.690Z,22.50
2023-05-14T04:47:39.695Z,21.10
2023-05-14T04:50:41.303Z,21.30
2023-05-14T04:53:42.930Z,21.00
2023-05-14T04:56:44.532Z,25.40
2023-05-14T04:59:46.290Z,21.90
2023-05-14T05:02:48.003Z,19.50
2023-05-14T05:05:49.645Z,20.20
2023-05-14T05:08:51.281Z,21.10
2023-05-14T05:11:52.883Z,21.00
2023-05-14T05:14:54.569Z,20.80
2023-05-14T05:17:56.549Z,19.80
2023-05-14T05:20:58.235Z,18.40
2023-05-14T05:23:59.774Z,17.50
2023-05-14T05:27:01.312Z,19.80
2023-05-14T05:30:02.958Z,18.00
2023-05-14T05:33:04.681Z,18.80
2023-05-14T05:36:06.458Z,20.90
2023-05-14T05:39:08.040Z,20.60
2023-05-14T05:42:09.814Z,18.40
2023-05-14T05:45:11.551Z,19.00
2023-05-14T05:48:13.170Z,17.00
2023-05-14T05:51:14.962Z,16.30
2023-05-14T05:54:16.654Z,20.10
2023-05-14T05:57:18.245Z,16.60
2023-05-14T06:00:20.402Z,18.00
2023-05-14T06:03:21.998Z,18.20
2023-05-14T06:06:23.596Z,14.90
2023-05-14T06:09:25.217Z,15.20
2023-05-14T06:12:26.778Z,15.70
2023-05-14T06:15:28.503Z,16.00
2023-05-14T06:18:30.043Z,14.40
2023-05-14T06:21:34.413Z,16.50
2023-05-14T06:24:36.012Z,14.60
2023-05-14T06:27:38.323Z,14.00
2023-05-14T06:30:40.067Z,14.30
2023-05-14T06:33:41.729Z,16.80
2023-05-14T06:36:43.345Z,14.00
2023-05-14T06:39:44.962Z,16.10
2023-05-14T06:42:46.504Z,13.00
2023-05-14T06:45:51.870Z,14.80
2023-05-14T06:48:53.464Z,9.90
2023-05-14T06:51:55.017Z,11.40
2023-05-14T06:54:56.656Z,11.70
2023-05-14T06:57:58.263Z,11.90
2023-05-14T07:01:00.082Z,11.60
2023-05-14T07:04:01.792Z,12.40
2023-05-14T07:07:03.523Z,10.20
2023-05-14T07:10:06.065Z,10.40
2023-05-14T07:13:08.169Z,12.10
2023-05-14T07:16:10.048Z,13.30
2023-05-14T07:19:11.676Z,13.80
2023-05-14T07:22:13.254Z,11.40
2023-05-14T07:25:14.820Z,14.40
2023-05-14T07:28:16.345Z,9.80
2023-05-14T07:31:17.912Z,10.90
2023-05-14T07:34:19.615Z,8.80
2023-05-14T07:37:23.171Z,9.00
2023-05-14T07:40:25.745Z,9.00
2023-05-14T07:43:27.446Z,12.90
2023-05-14T07:46:29.083Z,9.60
2023-05-14T07:49:30.863Z,9.20
2023-05-14T07:52:32.433Z,8.90
2023-05-14T07:55:34.004Z,14.60
2023-05-14T07:58:35.639Z,8.10
2023-05-14T08:01:39.280Z,6.30
2023-05-14T08:04:41.722Z,5.30
2023-05-14T08:07:43.302Z,7.90
2023-05-14T08:10:44.962Z,6.80
2023-05-14T08:13:46.456Z,8.10
2023-05-14T08:16:48.018Z,7.80
2023-05-14T08:19:49.634Z,6.70
2023-05-14T08:22:51.237Z,6.30
2023-05-14T08:25:52.753Z,7.20
2023-05-14T08:28:54.392Z,6.70
2023-05-14T08:31:56.221Z,5.10
2023-05-14T08:34:57.735Z,7.20
2023-05-14T08:37:59.357Z,6.00
2023-05-14T08:41:00.961Z,7.90
2023-05-14T08:44:13.247Z,8.80
2023-05-14T08:47:15.994Z,7.70
2023-05-14T08:50:19.840Z,8.00
2023-05-14T08:53:22.685Z,7.60
2023-05-14T08:56:25.217Z,7.10
2023-05-14T08:59:26.958Z,7.80
2023-05-14T09:02:30.556Z,7.90
2023-05-14T09:05:32.476Z,7.90
2023-05-14T09:08:34.040Z,6.70
2023-05-14T09:11:41.696Z,6.50
2023-05-14T09:14:44.607Z,11.90
2023-05-14T09:17:46.505Z,6.30
2023-05-14T09:20:48.193Z,6.30
2023-05-14T09:23:53.778Z,9.50
2023-05-14T09:26:58.761Z,8.50
2023-05-14T09:30:13.666Z,5.30
2023-05-14T09:33:25.936Z,6.60
2023-05-14T09:36:27.662Z,10.30
2023-05-14T09:39:29.715Z,6.70
2023-05-14T09:42:31.272Z,8.10
2023-05-14T09:45:33.055Z,8.90
2023-05-14T09:48:34.769Z,7.80
2023-05-14T09:51:37.852Z,8.30
2023-05-14T09:54:40.012Z,10.50
2023-05-14T09:57:41.640Z,11.20
2023-05-14T10:00:46.101Z,7.80
2023-05-14T10:03:48.973Z,9.70
2023-05-14T10:06:51.337Z,5.80
2023-05-14T10:09:59.355Z,6.50
2023-05-14T10:13:04.647Z,6.60
2023-05-14T10:16:11.896Z,4.90
2023-05-14T10:19:15.820Z,9.20
2023-05-14T10:22:19.833Z,7.00
2023-05-14T10:25:21.637Z,7.90
2023-05-14T10:28:23.373Z,8.90
2023-05-14T10:31:53.670Z,5.20
2023-05-14T10:34:55.368Z,6.20
2023-05-14T10:37:56.981Z,8.50
2023-05-14T10:41:04.206Z,6.80
2023-05-14T10:44:08.787Z,7.60
2023-05-14T10:47:10.432Z,7.00
2023-05-14T10:50:14.246Z,5.60
2023-05-14T10:53:16.110Z,7.30
2023-05-14T10:56:17.745Z,7.20
2023-05-14T10:59:19.441Z,7.30
2023-05-14T11:02:26.402Z,7.40
2023-05-14T11:05:28.012Z,7.00
2023-05-14T11:08:30.974Z,6.40
2023-05-14T11:11:32.524Z,4.90
2023-05-14T11:14:34.049Z,7.40
2023-05-14T11:17:36.899Z,5.20
2023-05-14T11:20:38.566Z,7.60
2023-05-14T11:23:40.093Z,5.50
2023-05-14T11:26:41.832Z,5.30
2023-05-14T11:29:44.992Z,9.20
2023-05-14T11:32:47.845Z,6.60
2023-05-14T11:35:49.462Z,8.50
2023-05-14T11:38:51.105Z,6.50
2023-05-14T11:41:52.792Z,7.40
2023-05-14T11:44:54.485Z,9.40
2023-05-14T11:47:56.134Z,6.50
2023-05-14T11:50:58.165Z,5.90
2023-05-14T11:53:59.774Z,6.00
2023-05-14T11:57:04.408Z,7.90
2023-05-14T12:00:11.174Z,6.40
2023-05-14T12:03:12.910Z,7.60
2023-05-14T12:06:14.750Z,8.70
2023-05-14T12:09:20.279Z,7.70
2023-05-14T12:12:22.497Z,8.80
2023-05-14T12:15:25.046Z,7.50
2023-05-14T12:18:31.407Z,7.20
2023-05-14T12:21:34.859Z,3.10
2023-05-14T12:24:36.663Z,8.10
2023-05-14T12:27:38.166Z,4.90
2023-05-14T12:30:39.996Z,3.50
2023-05-14T12:33:41.559Z,6.30
2023-05-14T12:36:43.710Z,9.90
2023-05-14T12:39:45.385Z,6.10
2023-05-14T12:42:46.895Z,3.80
2023-05-14T12:45:48.526Z,6.70
2023-05-14T12:48:53.094Z,7.30
2023-05-14T12:52:04.535Z,6.90
2023-05-14T12:55:16.790Z,7.60
2023-05-14T12:58:18.553Z,7.60
2023-05-14T13:01:20.204Z,6.00
2023-05-14T13:04:21.823Z,5.70
2023-05-14T13:07:23.559Z,5.00
2023-05-14T13:10:25.095Z,6.70
2023-05-14T13:13:26.699Z,6.90
2023-05-14T13:16:28.866Z,6.10
2023-05-14T13:19:30.676Z,5.60
2023-05-14T13:22:32.281Z,7.50
2023-05-14T13:25:33.984Z,4.20
2023-05-14T13:28:35.671Z,5.30
2023-05-14T13:31:37.349Z,6.10
2023-05-14T13:34:38.986Z,5.70
2023-05-14T13:37:40.680Z,4.40
2023-05-14T13:40:42.217Z,7.60
2023-05-14T13:43:43.762Z,7.10
2023-05-14T13:46:45.366Z,6.00
2023-05-14T13:49:47.140Z,4.30
2023-05-14T13:52:48.801Z,4.60
2023-05-14T13:55:50.909Z,7.50
2023-05-14T13:58:52.599Z,7.20
2023-05-14T14:01:54.217Z,8.80
2023-05-14T14:04:56.066Z,8.20
2023-05-14T14:08:01.042Z,5.20
2023-05-14T14:11:14.516Z,6.70
2023-05-14T14:14:16.614Z,6.30
2023-05-14T14:17:18.066Z,5.10
2023-05-14T14:20:19.731Z,3.80
2023-05-14T14:23:21.351Z,7.50
2023-05-14T14:26:22.943Z,6.80
2023-05-14T14:29:24.842Z,7.70
2023-05-14T14:32:26.610Z,11.10
2023-05-14T14:35:28.136Z,8.90
2023-05-14T14:38:29.725Z,7.40
2023-05-14T14:41:31.287Z,6.40
2023-05-14T14:44:32.960Z,7.60
2023-05-14T14:47:34.620Z,7.00
2023-05-14T14:50:36.256Z,5.90
2023-05-14T14:53:37.798Z,9.80
2023-05-14T14:56:39.413Z,7.10
2023-05-14T14:59:41.083Z,4.90
2023-05-14T15:02:43.836Z,6.40
2023-05-14T15:05:45.630Z,7.20
2023-05-14T15:08:47.160Z,7.40
2023-05-14T15:11:48.760Z,7.30
2023-05-14T15:14:50.481Z,8.30
2023-05-14T15:17:52.188Z,6.10
2023-05-14T15:20:53.900Z,7.30
2023-05-14T15:23:55.769Z,6.70
2023-05-14T15:26:57.364Z,7.50
2023-05-14T15:29:58.903Z,6.60
2023-05-14T15:33:00.701Z,7.30
2023-05-14T15:36:02.252Z,6.90
2023-05-14T15:39:03.922Z,9.40
2023-05-14T15:42:05.754Z,8.20
2023-05-14T15:45:08.218Z,7.60
2023-05-14T15:48:09.833Z,10.70
2023-05-14T15:51:11.493Z,13.30
2023-05-14T15:54:13.169Z,4.80
2023-05-14T15:57:14.841Z,4.50
2023-05-14T16:00:16.833Z,5.50
2023-05-14T16:03:18.618Z,7.30
2023-05-14T16:06:20.215Z,7.10
2023-05-14T16:09:21.769Z,3.80
2023-05-14T16:12:23.457Z,6.00
2023-05-14T16:15:25.145Z,4.80
2023-05-14T16:18:26.847Z,13.20
2023-05-14T16:21:28.529Z,8.70
2023-05-14T16:24:30.096Z,9.80
2023-05-14T16:27:31.908Z,4.90
2023-05-14T16:30:33.641Z,8.10
2023-05-14T16:33:35.233Z,5.70
2023-05-14T16:36:36.818Z,7.50
2023-05-14T16:39:38.357Z,7.40
2023-05-14T16:42:39.971Z,11.80
2023-05-14T16:45:41.611Z,7.90
2023-05-14T16:48:45.138Z,10.80
2023-05-14T16:51:46.991Z,13.30
2023-05-14T16:54:48.644Z,10.10
2023-05-14T16:57:50.203Z,11.30
2023-05-14T17:00:51.882Z,8.60
2023-05-14T17:03:53.866Z,12.50
2023-05-14T17:06:56.068Z,10.30
2023-05-14T17:09:58.155Z,11.30
2023-05-14T17:13:00.175Z,15.20
2023-05-14T17:16:21.844Z,12.70
2023-05-14T17:19:32.487Z,12.50
2023-05-14T17:22:34.478Z,14.10
2023-05-14T17:25:36.095Z,14.80
2023-05-14T17:28:37.816Z,14.90
2023-05-14T17:31:39.488Z,15.50
2023-05-14T17:34:41.128Z,13.20
2023-05-14T17:37:42.826Z,13.70
2023-05-14T17:40:44.458Z,14.30
2023-05-14T17:43:46.117Z,18.10
2023-05-14T17:46:47.912Z,23.90
2023-05-14T17:49:49.502Z,20.30
2023-05-14T17:52:51.052Z,14.50
2023-05-14T17:55:52.647Z,19.90
2023-05-14T17:58:54.245Z,19.70
2023-05-14T18:01:55.829Z,11.90
2023-05-14T18:04:57.522Z,14.60
2023-05-14T18:07:59.819Z,9.10
2023-05-14T18:11:01.476Z,7.10
2023-05-14T18:14:03.613Z,7.60
2023-05-14T18:17:05.500Z,7.10
2023-05-14T18:20:07.833Z,9.00
2023-05-14T18:23:09.575Z,7.20
2023-05-14T18:26:14.191Z,11.00
2023-05-14T18:29:18.328Z,9.00
2023-05-14T18:32:19.981Z,11.50
2023-05-14T18:35:21.559Z,10.70
2023-05-14T18:38:23.567Z,8.90
2023-05-14T18:41:25.237Z,11.40
2023-05-14T18:44:26.861Z,11.20
2023-05-14T18:47:28.559Z,8.70
2023-05-14T18:50:30.178Z,14.20
2023-05-14T18:53:31.862Z,18.80
2023-05-14T18:56:33.513Z,17.30
2023-05-14T18:59:35.299Z,17.30
2023-05-14T19:02:37.053Z,15.90
2023-05-14T19:05:38.826Z,14.10
2023-05-14T19:08:40.534Z,14.10
2023-05-14T19:11:42.096Z,12.10
2023-05-14T19:14:43.730Z,13.60
2023-05-14T19:17:45.395Z,15.20
2023-05-14T19:20:47.044Z,14.20
2023-05-14T19:23:48.638Z,14.00
2023-05-14T19:26:50.363Z,16.10
2023-05-14T19:29:52.010Z,18.80
2023-05-14T19:32:53.693Z,16.70
2023-05-14T19:35:55.962Z,16.20
2023-05-14T19:38:58.087Z,16.10
2023-05-14T19:41:59.612Z,17.40
2023-05-14T19:45:01.275Z,16.60
2023-05-14T19:48:03.089Z,16.10
2023-05-14T19:51:04.862Z,16.50
2023-05-14T19:54:06.697Z,15.70
2023-05-14T19:57:09.264Z,16.30
2023-05-14T20:00:11.526Z,14.60
2023-05-14T20:03:13.408Z,15.90
2023-05-14T20:06:15.189Z,13.60
2023-05-14T20:09:16.823Z,14.50
2023-05-14T20:12:18.565Z,15.70
2023-05-14T20:15:20.112Z,14.80
2023-05-14T20:18:21.697Z,16.30
2023-05-14T20:21:23.232Z,16.10
2023-05-14T20:24:24.850Z,12.80
2023-05-14T20:27:26.605Z,14.10
2023-05-14T20:30:28.453Z,13.40
2023-05-14T20:33:30.515Z,14.90
2023-05-14T20:36:32.016Z,13.70
2023-05-14T20:39:33.718Z,11.60
2023-05-14T20:42:35.486Z,13.00
2023-05-14T20:45:37.225Z,14.00
2023-05-14T20:48:39.084Z,14.20
2023-05-14T20:51:40.716Z,12.50
2023-05-14T20:54:42.866Z,14.80
2023-05-14T20:57:44.460Z,12.10
2023-05-14T21:00:46.038Z,16.60
2023-05-14T21:03:47.895Z,14.00
2023-05-14T21:06:49.789Z,12.40
2023-05-14T21:09:51.334Z,13.10
2023-05-14T21:12:52.994Z,9.50
2023-05-14T21:15:54.664Z,12.20
2023-05-14T21:18:56.337Z,11.70
2023-05-14T21:21:57.868Z,14.00
2023-05-14T21:24:59.401Z,16.90
2023-05-14T21:28:00.870Z,17.90
2023-05-14T21:31:02.579Z,17.40
2023-05-14T21:34:04.209Z,16.40
2023-05-14T21:37:05.804Z,11.60
2023-05-14T21:40:08.470Z,17.30
2023-05-14T21:43:10.165Z,13.50
2023-05-14T21:46:11.753Z,14.00
2023-05-14T21:49:13.391Z,13.10
2023-05-14T21:52:14.994Z,13.30
2023-05-14T21:55:16.612Z,11.90
2023-05-14T21:58:18.261Z,10.30
2023-05-14T22:01:19.911Z,11.10
2023-05-14T22:04:21.800Z,14.70
2023-05-14T22:07:23.449Z,13.30
2023-05-14T22:10:25.244Z,13.30
2023-05-14T22:13:26.889Z,10.90
2023-05-14T22:16:28.530Z,15.10
2023-05-14T22:19:30.151Z,13.30
2023-05-14T22:22:31.746Z,10.40
2023-05-14T22:25:33.360Z,11.80
2023-05-14T22:28:34.992Z,15.80
2023-05-14T22:31:36.592Z,18.20
2023-05-14T22:34:38.254Z,20.50
2023-05-14T22:37:42.874Z,13.80
2023-05-14T22:40:44.439Z,15.00
2023-05-14T22:43:46.056Z,15.60
2023-05-14T22:46:47.639Z,15.60
2023-05-14T22:49:49.221Z,15.60
2023-05-14T22:52:50.764Z,16.20
2023-05-14T22:55:52.488Z,16.50
2023-05-14T22:58:54.150Z,14.40
2023-05-14T23:01:55.686Z,13.90
2023-05-14T23:04:57.355Z,19.50
2023-05-14T23:07:59.226Z,17.00
2023-05-14T23:11:00.921Z,18.00
2023-05-14T23:14:02.637Z,18.80
2023-05-14T23:17:04.400Z,16.30
2023-05-14T23:20:06.866Z,18.30
2023-05-14T23:23:08.549Z,18.60
2023-05-14T23:26:10.186Z,18.30
2023-05-14T23:29:11.777Z,18.90
2023-05-14T23:32:13.392Z,19.70
2023-05-14T23:35:14.981Z,16.80
2023-05-14T23:38:16.784Z,18.00
2023-05-14T23:41:18.323Z,20.90
2023-05-14T23:44:19.877Z,21.70
2023-05-14T23:47:21.570Z,20.90
2023-05-14T23:50:23.138Z,19.20
2023-05-14T23:53:24.762Z,17.60
2023-05-14T23:56:26.757Z,19.00
2023-05-14T23:59:28.407Z,18.70
